sensor_id;sensor_type;location;lat;lon;timestamp;P1;durP1;ratioP1;P2;durP2;ratioP2
8913;SDS011;4492;48.736;9.092;2023-08-31T00:01:08;3.23;;;1.90;;
8913;SDS011;4492;48.736;9.092;2023-08-31T00:03:34;6.23;;;2.00;;
8913;SDS011;4492;48.736;9.092;2023-08-31T00:06:03;1.70;;;1.60;;
8913;SDS011;4492;48.736;9.092;2023-08-31T00:08:29;3.10;;;2.00;;
8913;SDS011;4492;48.736;9.092;2023-08-31T00:10:58;1.93;;;1.83;;
8913;SDS011;4492;48.736;9.092;2023-08-31T00:13:25;2.30;;;2.10;;
8913;SDS011;4492;48.736;9.092;2023-08-31T00:15:53;3.17;;;1.90;;
8913;SDS011;4492;48.736;9.092;2023-08-31T00:18:20;3.63;;;2.10;;
8913;SDS011;4492;48.736;9.092;2023-08-31T00:20:45;2.40;;;2.20;;
8913;SDS011;4492;48.736;9.092;2023-08-31T00:23:11;2.60;;;2.40;;
8913;SDS011;4492;48.736;9.092;2023-08-31T00:25:36;2.10;;;2.00;;
8913;SDS011;4492;48.736;9.092;2023-08-31T00:28:02;4.00;;;2.63;;
8913;SDS011;4492;48.736;9.092;2023-08-31T00:30:30;3.63;;;2.03;;
8913;SDS011;4492;48.736;9.092;2023-08-31T00:32:58;5.43;;;3.33;;
8913;SDS011;4492;48.736;9.092;2023-08-31T00:35:27;2.70;;;2.50;;
8913;SDS011;4492;48.736;9.092;2023-08-31T00:37:53;2.93;;;2.20;;
8913;SDS011;4492;48.736;9.092;2023-08-31T00:40:24;3.60;;;3.03;;
8913;SDS011;4492;48.736;9.092;2023-08-31T00:42:50;2.97;;;2.40;;
8913;SDS011;4492;48.736;9.092;2023-08-31T00:45:16;4.83;;;2.80;;
8913;SDS011;4492;48.736;9.092;2023-08-31T00:47:44;4.53;;;2.60;;
8913;SDS011;4492;48.736;9.092;2023-08-31T00:50:10;3.43;;;2.60;;
8913;SDS011;4492;48.736;9.092;2023-08-31T00:52:36;4.27;;;2.60;;
8913;SDS011;4492;48.736;9.092;2023-08-31T00:55:02;3.00;;;2.73;;
8913;SDS011;4492;48.736;9.092;2023-08-31T00:57:31;6.43;;;2.80;;
8913;SDS011;4492;48.736;9.092;2023-08-31T00:59:56;2.63;;;2.33;;
8913;SDS011;4492;48.736;9.092;2023-08-31T01:02:25;4.83;;;2.77;;
8913;SDS011;4492;48.736;9.092;2023-08-31T01:14:20;2.87;;;2.67;;
8913;SDS011;4492;48.736;9.092;2023-08-31T01:16:49;4.60;;;2.90;;
8913;SDS011;4492;48.736;9.092;2023-08-31T01:19:23;4.73;;;2.97;;
8913;SDS011;4492;48.736;9.092;2023-08-31T01:22:11;3.57;;;2.73;;
8913;SDS011;4492;48.736;9.092;2023-08-31T01:24:49;5.87;;;2.80;;
8913;SDS011;4492;48.736;9.092;2023-08-31T01:27:16;4.93;;;3.00;;
8913;SDS011;4492;48.736;9.092;2023-08-31T01:29:42;3.13;;;2.77;;
8913;SDS011;4492;48.736;9.092;2023-08-31T01:32:08;3.47;;;3.17;;
8913;SDS011;4492;48.736;9.092;2023-08-31T01:34:33;3.70;;;3.17;;
8913;SDS011;4492;48.736;9.092;2023-08-31T01:37:00;4.50;;;3.53;;
8913;SDS011;4492;48.736;9.092;2023-08-31T01:39:33;5.23;;;3.83;;
8913;SDS011;4492;48.736;9.092;2023-08-31T01:42:06;6.23;;;3.30;;
8913;SDS011;4492;48.736;9.092;2023-08-31T01:44:34;4.80;;;3.63;;
8913;SDS011;4492;48.736;9.092;2023-08-31T01:47:02;4.43;;;3.47;;
8913;SDS011;4492;48.736;9.092;2023-08-31T01:49:38;5.43;;;3.50;;
8913;SDS011;4492;48.736;9.092;2023-08-31T01:52:05;5.87;;;3.87;;
8913;SDS011;4492;48.736;9.092;2023-08-31T01:54:31;6.13;;;3.77;;
8913;SDS011;4492;48.736;9.092;2023-08-31T01:56:57;4.37;;;3.70;;
8913;SDS011;4492;48.736;9.092;2023-08-31T01:59:23;5.83;;;3.57;;
8913;SDS011;4492;48.736;9.092;2023-08-31T02:01:48;4.13;;;3.63;;
8913;SDS011;4492;48.736;9.092;2023-08-31T02:04:14;4.07;;;3.57;;
8913;SDS011;4492;48.736;9.092;2023-08-31T02:06:39;4.43;;;3.83;;
8913;SDS011;4492;48.736;9.092;2023-08-31T02:09:05;5.47;;;3.30;;
8913;SDS011;4492;48.736;9.092;2023-08-31T02:11:31;5.77;;;3.80;;
8913;SDS011;4492;48.736;9.092;2023-08-31T02:13:57;4.10;;;3.67;;
8913;SDS011;4492;48.736;9.092;2023-08-31T02:16:23;6.33;;;4.00;;
8913;SDS011;4492;48.736;9.092;2023-08-31T02:18:49;5.93;;;3.73;;
8913;SDS011;4492;48.736;9.092;2023-08-31T02:21:14;6.03;;;3.67;;
8913;SDS011;4492;48.736;9.092;2023-08-31T02:23:40;3.63;;;3.20;;
8913;SDS011;4492;48.736;9.092;2023-08-31T02:26:05;6.13;;;3.37;;
8913;SDS011;4492;48.736;9.092;2023-08-31T02:28:31;4.47;;;3.77;;
8913;SDS011;4492;48.736;9.092;2023-08-31T02:30:57;7.73;;;3.90;;
8913;SDS011;4492;48.736;9.092;2023-08-31T02:33:24;6.00;;;3.20;;
8913;SDS011;4492;48.736;9.092;2023-08-31T02:35:50;4.10;;;3.40;;
8913;SDS011;4492;48.736;9.092;2023-08-31T02:38:15;4.63;;;3.33;;
8913;SDS011;4492;48.736;9.092;2023-08-31T02:40:41;3.60;;;3.30;;
8913;SDS011;4492;48.736;9.092;2023-08-31T02:43:06;3.93;;;3.40;;
8913;SDS011;4492;48.736;9.092;2023-08-31T02:45:32;5.03;;;3.50;;
8913;SDS011;4492;48.736;9.092;2023-08-31T02:47:58;4.43;;;3.60;;
8913;SDS011;4492;48.736;9.092;2023-08-31T02:50:23;4.33;;;3.57;;
8913;SDS011;4492;48.736;9.092;2023-08-31T02:52:49;4.83;;;3.50;;
8913;SDS011;4492;48.736;9.092;2023-08-31T02:55:15;5.07;;;3.50;;
8913;SDS011;4492;48.736;9.092;2023-08-31T02:57:40;6.83;;;3.60;;
8913;SDS011;4492;48.736;9.092;2023-08-31T03:00:06;3.80;;;3.40;;
8913;SDS011;4492;48.736;9.092;2023-08-31T03:02:35;4.47;;;3.23;;
8913;SDS011;4492;48.736;9.092;2023-08-31T03:05:01;4.70;;;3.20;;
8913;SDS011;4492;48.736;9.092;2023-08-31T03:07:27;6.17;;;3.43;;
8913;SDS011;4492;48.736;9.092;2023-08-31T03:09:52;4.17;;;3.20;;
8913;SDS011;4492;48.736;9.092;2023-08-31T03:12:18;3.50;;;3.20;;
8913;SDS011;4492;48.736;9.092;2023-08-31T03:14:43;5.70;;;3.30;;
8913;SDS011;4492;48.736;9.092;2023-08-31T03:17:09;5.63;;;3.63;;
8913;SDS011;4492;48.736;9.092;2023-08-31T03:19:34;6.60;;;3.73;;
8913;SDS011;4492;48.736;9.092;2023-08-31T03:22:00;4.43;;;3.43;;
8913;SDS011;4492;48.736;9.092;2023-08-31T03:24:26;5.57;;;3.53;;
8913;SDS011;4492;48.736;9.092;2023-08-31T03:26:51;6.37;;;3.47;;
8913;SDS011;4492;48.736;9.092;2023-08-31T03:29:17;3.63;;;3.33;;
8913;SDS011;4492;48.736;9.092;2023-08-31T03:31:42;5.33;;;3.47;;
8913;SDS011;4492;48.736;9.092;2023-08-31T03:34:08;6.00;;;3.60;;
8913;SDS011;4492;48.736;9.092;2023-08-31T03:36:33;6.40;;;3.90;;
8913;SDS011;4492;48.736;9.092;2023-08-31T03:38:59;6.80;;;4.20;;
8913;SDS011;4492;48.736;9.092;2023-08-31T03:41:24;5.13;;;3.87;;
8913;SDS011;4492;48.736;9.092;2023-08-31T03:43:50;7.50;;;3.70;;
8913;SDS011;4492;48.736;9.092;2023-08-31T03:46:16;5.40;;;3.83;;
8913;SDS011;4492;48.736;9.092;2023-08-31T03:48:41;8.33;;;4.40;;
8913;SDS011;4492;48.736;9.092;2023-08-31T03:51:07;6.73;;;4.53;;
8913;SDS011;4492;48.736;9.092;2023-08-31T03:53:32;5.43;;;4.47;;
8913;SDS011;4492;48.736;9.092;2023-08-31T03:55:58;8.17;;;4.10;;
8913;SDS011;4492;48.736;9.092;2023-08-31T03:58:23;7.93;;;4.63;;
8913;SDS011;4492;48.736;9.092;2023-08-31T04:00:49;7.83;;;4.80;;
8913;SDS011;4492;48.736;9.092;2023-08-31T04:03:15;5.67;;;4.80;;
8913;SDS011;4492;48.736;9.092;2023-08-31T04:05:41;6.37;;;4.27;;
8913;SDS011;4492;48.736;9.092;2023-08-31T04:08:07;9.27;;;4.30;;
8913;SDS011;4492;48.736;9.092;2023-08-31T04:10:33;5.80;;;4.20;;
8913;SDS011;4492;48.736;9.092;2023-08-31T04:12:58;6.13;;;4.53;;
8913;SDS011;4492;48.736;9.092;2023-08-31T04:15:24;6.50;;;4.77;;
8913;SDS011;4492;48.736;9.092;2023-08-31T04:17:49;5.80;;;4.30;;
8913;SDS011;4492;48.736;9.092;2023-08-31T04:20:15;7.73;;;4.53;;
8913;SDS011;4492;48.736;9.092;2023-08-31T04:22:41;5.67;;;4.33;;
8913;SDS011;4492;48.736;9.092;2023-08-31T04:25:06;6.20;;;4.70;;
8913;SDS011;4492;48.736;9.092;2023-08-31T04:27:32;9.03;;;4.80;;
8913;SDS011;4492;48.736;9.092;2023-08-31T04:29:58;6.33;;;4.67;;
8913;SDS011;4492;48.736;9.092;2023-08-31T04:32:25;8.43;;;4.23;;
8913;SDS011;4492;48.736;9.092;2023-08-31T04:34:51;10.50;;;4.67;;
8913;SDS011;4492;48.736;9.092;2023-08-31T04:37:17;7.30;;;4.10;;
8913;SDS011;4492;48.736;9.092;2023-08-31T04:39:42;7.07;;;4.00;;
8913;SDS011;4492;48.736;9.092;2023-08-31T04:42:08;5.60;;;4.00;;
8913;SDS011;4492;48.736;9.092;2023-08-31T04:44:33;6.77;;;4.50;;
8913;SDS011;4492;48.736;9.092;2023-08-31T04:46:59;5.33;;;3.87;;
8913;SDS011;4492;48.736;9.092;2023-08-31T04:49:25;6.70;;;4.00;;
8913;SDS011;4492;48.736;9.092;2023-08-31T04:51:51;4.53;;;4.00;;
8913;SDS011;4492;48.736;9.092;2023-08-31T04:54:17;7.03;;;3.93;;
8913;SDS011;4492;48.736;9.092;2023-08-31T04:56:43;3.63;;;3.33;;
8913;SDS011;4492;48.736;9.092;2023-08-31T04:59:08;4.90;;;4.33;;
8913;SDS011;4492;48.736;9.092;2023-08-31T05:01:34;7.37;;;5.47;;
8913;SDS011;4492;48.736;9.092;2023-08-31T05:03:59;7.33;;;4.47;;
8913;SDS011;4492;48.736;9.092;2023-08-31T05:06:25;7.60;;;4.00;;
8913;SDS011;4492;48.736;9.092;2023-08-31T05:08:51;5.00;;;3.73;;
8913;SDS011;4492;48.736;9.092;2023-08-31T05:11:16;7.63;;;4.57;;
8913;SDS011;4492;48.736;9.092;2023-08-31T05:13:42;10.10;;;4.83;;
8913;SDS011;4492;48.736;9.092;2023-08-31T05:16:08;11.03;;;4.77;;
8913;SDS011;4492;48.736;9.092;2023-08-31T05:18:34;9.83;;;4.97;;
8913;SDS011;4492;48.736;9.092;2023-08-31T05:20:59;9.77;;;4.87;;
8913;SDS011;4492;48.736;9.092;2023-08-31T05:23:25;7.60;;;4.87;;
8913;SDS011;4492;48.736;9.092;2023-08-31T05:25:50;8.33;;;4.83;;
8913;SDS011;4492;48.736;9.092;2023-08-31T05:28:16;7.70;;;4.87;;
8913;SDS011;4492;48.736;9.092;2023-08-31T05:30:51;8.03;;;5.13;;
8913;SDS011;4492;48.736;9.092;2023-08-31T05:33:18;9.87;;;4.77;;
8913;SDS011;4492;48.736;9.092;2023-08-31T05:35:44;9.50;;;4.67;;
8913;SDS011;4492;48.736;9.092;2023-08-31T05:38:10;7.10;;;4.47;;
8913;SDS011;4492;48.736;9.092;2023-08-31T05:40:35;6.50;;;4.30;;
8913;SDS011;4492;48.736;9.092;2023-08-31T05:43:01;6.20;;;4.90;;
8913;SDS011;4492;48.736;9.092;2023-08-31T05:45:28;11.20;;;4.83;;
8913;SDS011;4492;48.736;9.092;2023-08-31T05:47:57;5.67;;;4.70;;
8913;SDS011;4492;48.736;9.092;2023-08-31T05:50:22;7.63;;;5.10;;
8913;SDS011;4492;48.736;9.092;2023-08-31T05:52:48;6.37;;;4.60;;
8913;SDS011;4492;48.736;9.092;2023-08-31T05:55:13;8.10;;;4.37;;
8913;SDS011;4492;48.736;9.092;2023-08-31T05:57:39;6.43;;;3.90;;
8913;SDS011;4492;48.736;9.092;2023-08-31T06:00:05;7.93;;;4.83;;
8913;SDS011;4492;48.736;9.092;2023-08-31T06:02:32;6.57;;;4.20;;
8913;SDS011;4492;48.736;9.092;2023-08-31T06:04:57;6.47;;;4.50;;
8913;SDS011;4492;48.736;9.092;2023-08-31T06:07:23;6.30;;;4.77;;
8913;SDS011;4492;48.736;9.092;2023-08-31T06:09:48;9.23;;;4.73;;
8913;SDS011;4492;48.736;9.092;2023-08-31T06:12:14;6.37;;;4.63;;
8913;SDS011;4492;48.736;9.092;2023-08-31T06:14:40;6.63;;;4.80;;
8913;SDS011;4492;48.736;9.092;2023-08-31T06:17:05;5.77;;;4.23;;
8913;SDS011;4492;48.736;9.092;2023-08-31T06:19:31;8.53;;;4.50;;
8913;SDS011;4492;48.736;9.092;2023-08-31T06:21:56;7.47;;;4.90;;
8913;SDS011;4492;48.736;9.092;2023-08-31T06:24:22;7.17;;;4.43;;
8913;SDS011;4492;48.736;9.092;2023-08-31T06:26:47;7.17;;;4.50;;
8913;SDS011;4492;48.736;9.092;2023-08-31T06:29:13;7.60;;;4.23;;
8913;SDS011;4492;48.736;9.092;2023-08-31T06:31:39;10.13;;;4.43;;
8913;SDS011;4492;48.736;9.092;2023-08-31T06:34:05;7.53;;;4.27;;
8913;SDS011;4492;48.736;9.092;2023-08-31T06:36:30;4.67;;;4.00;;
8913;SDS011;4492;48.736;9.092;2023-08-31T06:38:56;4.97;;;3.97;;
8913;SDS011;4492;48.736;9.092;2023-08-31T06:41:21;5.07;;;3.90;;
8913;SDS011;4492;48.736;9.092;2023-08-31T06:43:47;5.27;;;4.03;;
8913;SDS011;4492;48.736;9.092;2023-08-31T06:46:12;6.77;;;3.90;;
8913;SDS011;4492;48.736;9.092;2023-08-31T06:48:38;7.10;;;3.90;;
8913;SDS011;4492;48.736;9.092;2023-08-31T06:51:03;7.00;;;3.37;;
8913;SDS011;4492;48.736;9.092;2023-08-31T06:53:29;4.73;;;3.30;;
8913;SDS011;4492;48.736;9.092;2023-08-31T06:55:56;5.40;;;2.90;;
8913;SDS011;4492;48.736;9.092;2023-08-31T06:58:22;5.40;;;2.67;;
8913;SDS011;4492;48.736;9.092;2023-08-31T07:00:47;3.33;;;2.40;;
8913;SDS011;4492;48.736;9.092;2023-08-31T07:03:13;2.83;;;2.60;;
8913;SDS011;4492;48.736;9.092;2023-08-31T07:05:41;4.37;;;2.43;;
8913;SDS011;4492;48.736;9.092;2023-08-31T07:08:07;6.00;;;2.53;;
8913;SDS011;4492;48.736;9.092;2023-08-31T07:10:33;3.80;;;2.30;;
8913;SDS011;4492;48.736;9.092;2023-08-31T07:13:01;3.97;;;2.40;;
8913;SDS011;4492;48.736;9.092;2023-08-31T07:15:28;3.13;;;2.27;;
8913;SDS011;4492;48.736;9.092;2023-08-31T07:17:54;5.33;;;2.20;;
8913;SDS011;4492;48.736;9.092;2023-08-31T07:20:19;3.97;;;2.17;;
8913;SDS011;4492;48.736;9.092;2023-08-31T07:22:45;6.67;;;2.70;;
8913;SDS011;4492;48.736;9.092;2023-08-31T07:25:10;2.63;;;2.17;;
8913;SDS011;4492;48.736;9.092;2023-08-31T07:27:36;3.77;;;2.07;;
8913;SDS011;4492;48.736;9.092;2023-08-31T07:30:03;3.33;;;1.87;;
8913;SDS011;4492;48.736;9.092;2023-08-31T07:32:30;4.07;;;2.00;;
8913;SDS011;4492;48.736;9.092;2023-08-31T07:34:56;4.03;;;2.20;;
8913;SDS011;4492;48.736;9.092;2023-08-31T07:37:21;5.20;;;2.10;;
8913;SDS011;4492;48.736;9.092;2023-08-31T07:39:47;4.43;;;2.30;;
8913;SDS011;4492;48.736;9.092;2023-08-31T07:42:12;4.77;;;2.10;;
8913;SDS011;4492;48.736;9.092;2023-08-31T07:44:38;5.10;;;2.00;;
8913;SDS011;4492;48.736;9.092;2023-08-31T07:47:03;5.23;;;2.10;;
8913;SDS011;4492;48.736;9.092;2023-08-31T07:49:30;6.30;;;2.03;;
8913;SDS011;4492;48.736;9.092;2023-08-31T07:51:55;3.90;;;1.70;;
8913;SDS011;4492;48.736;9.092;2023-08-31T07:54:21;1.83;;;1.50;;
8913;SDS011;4492;48.736;9.092;2023-08-31T07:56:47;5.60;;;2.00;;
8913;SDS011;4492;48.736;9.092;2023-08-31T07:59:13;3.73;;;2.00;;
8913;SDS011;4492;48.736;9.092;2023-08-31T08:01:38;5.90;;;1.93;;
8913;SDS011;4492;48.736;9.092;2023-08-31T08:04:05;3.23;;;1.70;;
8913;SDS011;4492;48.736;9.092;2023-08-31T08:06:31;2.17;;;1.80;;
8913;SDS011;4492;48.736;9.092;2023-08-31T08:08:56;2.83;;;2.07;;
8913;SDS011;4492;48.736;9.092;2023-08-31T08:11:22;3.93;;;2.23;;
8913;SDS011;4492;48.736;9.092;2023-08-31T08:13:48;4.67;;;2.30;;
8913;SDS011;4492;48.736;9.092;2023-08-31T08:16:13;3.37;;;1.77;;
8913;SDS011;4492;48.736;9.092;2023-08-31T08:18:39;2.63;;;1.60;;
8913;SDS011;4492;48.736;9.092;2023-08-31T08:21:05;5.03;;;1.87;;
8913;SDS011;4492;48.736;9.092;2023-08-31T08:23:31;4.90;;;1.73;;
8913;SDS011;4492;48.736;9.092;2023-08-31T08:25:57;4.17;;;1.87;;
8913;SDS011;4492;48.736;9.092;2023-08-31T08:28:24;3.57;;;2.53;;
8913;SDS011;4492;48.736;9.092;2023-08-31T08:30:50;3.63;;;1.93;;
8913;SDS011;4492;48.736;9.092;2023-08-31T08:33:16;5.50;;;2.57;;
8913;SDS011;4492;48.736;9.092;2023-08-31T08:35:41;4.37;;;1.83;;
8913;SDS011;4492;48.736;9.092;2023-08-31T08:38:07;5.43;;;1.60;;
8913;SDS011;4492;48.736;9.092;2023-08-31T08:40:32;3.73;;;1.63;;
8913;SDS011;4492;48.736;9.092;2023-08-31T08:43:02;1.70;;;1.60;;
8913;SDS011;4492;48.736;9.092;2023-08-31T08:45:36;3.60;;;1.97;;
8913;SDS011;4492;48.736;9.092;2023-08-31T08:48:05;5.97;;;1.80;;
8913;SDS011;4492;48.736;9.092;2023-08-31T08:50:31;4.07;;;1.93;;
8913;SDS011;4492;48.736;9.092;2023-08-31T08:52:59;1.97;;;1.40;;
8913;SDS011;4492;48.736;9.092;2023-08-31T08:55:28;3.77;;;1.70;;
8913;SDS011;4492;48.736;9.092;2023-08-31T08:57:53;4.73;;;1.93;;
8913;SDS011;4492;48.736;9.092;2023-08-31T09:00:20;3.37;;;1.97;;
8913;SDS011;4492;48.736;9.092;2023-08-31T09:02:46;5.23;;;1.90;;
8913;SDS011;4492;48.736;9.092;2023-08-31T09:05:11;4.60;;;2.13;;
8913;SDS011;4492;48.736;9.092;2023-08-31T09:07:37;5.37;;;2.23;;
8913;SDS011;4492;48.736;9.092;2023-08-31T09:10:03;5.23;;;1.90;;
8913;SDS011;4492;48.736;9.092;2023-08-31T09:12:29;4.43;;;1.90;;
8913;SDS011;4492;48.736;9.092;2023-08-31T09:14:58;3.60;;;1.73;;
8913;SDS011;4492;48.736;9.092;2023-08-31T09:17:40;3.40;;;2.00;;
8913;SDS011;4492;48.736;9.092;2023-08-31T09:20:07;2.37;;;1.80;;
8913;SDS011;4492;48.736;9.092;2023-08-31T09:22:35;3.73;;;1.70;;
8913;SDS011;4492;48.736;9.092;2023-08-31T09:25:01;1.97;;;1.70;;
8913;SDS011;4492;48.736;9.092;2023-08-31T09:27:28;3.53;;;1.87;;
8913;SDS011;4492;48.736;9.092;2023-08-31T09:29:56;4.80;;;2.10;;
8913;SDS011;4492;48.736;9.092;2023-08-31T09:32:23;3.10;;;1.60;;
8913;SDS011;4492;48.736;9.092;2023-08-31T09:34:48;2.57;;;1.57;;
8913;SDS011;4492;48.736;9.092;2023-08-31T09:37:15;3.63;;;1.77;;
8913;SDS011;4492;48.736;9.092;2023-08-31T09:39:41;2.67;;;1.80;;
8913;SDS011;4492;48.736;9.092;2023-08-31T09:42:07;2.73;;;1.80;;
8913;SDS011;4492;48.736;9.092;2023-08-31T09:44:33;2.77;;;1.50;;
8913;SDS011;4492;48.736;9.092;2023-08-31T09:46:59;4.27;;;2.00;;
8913;SDS011;4492;48.736;9.092;2023-08-31T09:49:25;3.43;;;2.07;;
8913;SDS011;4492;48.736;9.092;2023-08-31T09:51:51;6.97;;;1.67;;
8913;SDS011;4492;48.736;9.092;2023-08-31T09:54:17;4.50;;;1.90;;
8913;SDS011;4492;48.736;9.092;2023-08-31T09:56:45;3.83;;;1.77;;
8913;SDS011;4492;48.736;9.092;2023-08-31T09:59:13;3.10;;;1.70;;
8913;SDS011;4492;48.736;9.092;2023-08-31T10:01:39;3.53;;;1.67;;
8913;SDS011;4492;48.736;9.092;2023-08-31T10:04:06;4.23;;;1.67;;
8913;SDS011;4492;48.736;9.092;2023-08-31T10:06:33;1.87;;;1.67;;
8913;SDS011;4492;48.736;9.092;2023-08-31T10:09:08;3.40;;;1.70;;
8913;SDS011;4492;48.736;9.092;2023-08-31T10:11:34;4.23;;;1.60;;
8913;SDS011;4492;48.736;9.092;2023-08-31T10:14:02;5.90;;;2.03;;
8913;SDS011;4492;48.736;9.092;2023-08-31T10:16:29;3.07;;;1.60;;
8913;SDS011;4492;48.736;9.092;2023-08-31T10:18:55;2.33;;;1.67;;
8913;SDS011;4492;48.736;9.092;2023-08-31T10:21:21;2.77;;;1.70;;
8913;SDS011;4492;48.736;9.092;2023-08-31T10:23:48;3.63;;;1.90;;
8913;SDS011;4492;48.736;9.092;2023-08-31T10:26:27;4.00;;;1.70;;
8913;SDS011;4492;48.736;9.092;2023-08-31T10:28:54;2.67;;;1.53;;
8913;SDS011;4492;48.736;9.092;2023-08-31T10:31:20;4.07;;;1.90;;
8913;SDS011;4492;48.736;9.092;2023-08-31T10:33:55;3.03;;;1.60;;
8913;SDS011;4492;48.736;9.092;2023-08-31T10:36:22;4.57;;;2.00;;
8913;SDS011;4492;48.736;9.092;2023-08-31T10:39:01;5.00;;;2.00;;
8913;SDS011;4492;48.736;9.092;2023-08-31T10:41:36;3.70;;;1.90;;
8913;SDS011;4492;48.736;9.092;2023-08-31T10:44:02;4.17;;;1.60;;
8913;SDS011;4492;48.736;9.092;2023-08-31T10:46:43;6.67;;;2.30;;
8913;SDS011;4492;48.736;9.092;2023-08-31T10:51:35;7.67;;;2.50;;
8913;SDS011;4492;48.736;9.092;2023-08-31T10:54:08;3.37;;;1.63;;
8913;SDS011;4492;48.736;9.092;2023-08-31T10:56:42;4.97;;;2.03;;
8913;SDS011;4492;48.736;9.092;2023-08-31T10:59:16;4.00;;;1.80;;
8913;SDS011;4492;48.736;9.092;2023-08-31T11:01:52;4.33;;;2.23;;
8913;SDS011;4492;48.736;9.092;2023-08-31T11:04:18;1.87;;;1.60;;
8913;SDS011;4492;48.736;9.092;2023-08-31T11:06:45;5.50;;;2.00;;
8913;SDS011;4492;48.736;9.092;2023-08-31T11:09:18;3.80;;;2.20;;
8913;SDS011;4492;48.736;9.092;2023-08-31T11:11:47;3.43;;;1.93;;
8913;SDS011;4492;48.736;9.092;2023-08-31T11:14:13;3.53;;;1.87;;
8913;SDS011;4492;48.736;9.092;2023-08-31T11:16:40;3.87;;;2.20;;
8913;SDS011;4492;48.736;9.092;2023-08-31T11:19:06;5.13;;;2.40;;
8913;SDS011;4492;48.736;9.092;2023-08-31T11:21:32;4.40;;;1.83;;
8913;SDS011;4492;48.736;9.092;2023-08-31T11:23:58;3.10;;;1.87;;
8913;SDS011;4492;48.736;9.092;2023-08-31T11:26:25;4.27;;;1.80;;
8913;SDS011;4492;48.736;9.092;2023-08-31T11:28:51;6.23;;;2.30;;
8913;SDS011;4492;48.736;9.092;2023-08-31T11:31:23;4.60;;;1.80;;
8913;SDS011;4492;48.736;9.092;2023-08-31T11:33:49;4.60;;;1.60;;
8913;SDS011;4492;48.736;9.092;2023-08-31T11:36:15;4.63;;;2.10;;
8913;SDS011;4492;48.736;9.092;2023-08-31T11:38:43;4.07;;;1.90;;
8913;SDS011;4492;48.736;9.092;2023-08-31T11:41:08;3.97;;;2.00;;
8913;SDS011;4492;48.736;9.092;2023-08-31T11:43:34;4.80;;;2.53;;
8913;SDS011;4492;48.736;9.092;2023-08-31T11:46:01;3.60;;;2.07;;
8913;SDS011;4492;48.736;9.092;2023-08-31T11:48:28;2.53;;;1.77;;
8913;SDS011;4492;48.736;9.092;2023-08-31T11:50:54;3.70;;;2.00;;
8913;SDS011;4492;48.736;9.092;2023-08-31T11:53:20;2.47;;;2.27;;
8913;SDS011;4492;48.736;9.092;2023-08-31T11:55:49;3.73;;;1.70;;
8913;SDS011;4492;48.736;9.092;2023-08-31T11:58:16;3.30;;;1.53;;
8913;SDS011;4492;48.736;9.092;2023-08-31T12:00:42;3.00;;;1.80;;
8913;SDS011;4492;48.736;9.092;2023-08-31T12:03:08;2.57;;;1.93;;
8913;SDS011;4492;48.736;9.092;2023-08-31T12:05:47;3.73;;;1.70;;
8913;SDS011;4492;48.736;9.092;2023-08-31T12:08:16;3.07;;;1.87;;
8913;SDS011;4492;48.736;9.092;2023-08-31T12:10:52;3.50;;;1.90;;
8913;SDS011;4492;48.736;9.092;2023-08-31T12:13:17;4.80;;;2.40;;
8913;SDS011;4492;48.736;9.092;2023-08-31T12:15:43;3.67;;;1.93;;
8913;SDS011;4492;48.736;9.092;2023-08-31T12:18:09;4.00;;;2.10;;
8913;SDS011;4492;48.736;9.092;2023-08-31T12:20:46;3.20;;;1.80;;
8913;SDS011;4492;48.736;9.092;2023-08-31T12:23:12;3.53;;;1.53;;
8913;SDS011;4492;48.736;9.092;2023-08-31T12:25:45;5.37;;;2.27;;
8913;SDS011;4492;48.736;9.092;2023-08-31T12:28:14;3.50;;;1.70;;
8913;SDS011;4492;48.736;9.092;2023-08-31T12:30:50;3.17;;;1.90;;
8913;SDS011;4492;48.736;9.092;2023-08-31T12:33:17;4.10;;;1.73;;
8913;SDS011;4492;48.736;9.092;2023-08-31T12:35:44;4.67;;;1.90;;
8913;SDS011;4492;48.736;9.092;2023-08-31T12:38:11;3.40;;;1.83;;
8913;SDS011;4492;48.736;9.092;2023-08-31T12:40:37;2.23;;;1.90;;
8913;SDS011;4492;48.736;9.092;2023-08-31T12:43:06;2.63;;;1.87;;
8913;SDS011;4492;48.736;9.092;2023-08-31T12:45:32;4.77;;;1.80;;
8913;SDS011;4492;48.736;9.092;2023-08-31T12:47:58;3.47;;;1.93;;
8913;SDS011;4492;48.736;9.092;2023-08-31T12:50:24;2.23;;;1.77;;
8913;SDS011;4492;48.736;9.092;2023-08-31T12:52:49;2.67;;;1.77;;
8913;SDS011;4492;48.736;9.092;2023-08-31T12:55:15;4.00;;;1.97;;
8913;SDS011;4492;48.736;9.092;2023-08-31T12:57:41;5.43;;;2.10;;
8913;SDS011;4492;48.736;9.092;2023-08-31T13:00:08;5.17;;;1.80;;
8913;SDS011;4492;48.736;9.092;2023-08-31T13:02:38;5.63;;;1.97;;
8913;SDS011;4492;48.736;9.092;2023-08-31T13:05:05;2.40;;;1.60;;
8913;SDS011;4492;48.736;9.092;2023-08-31T13:07:31;2.17;;;1.50;;
8913;SDS011;4492;48.736;9.092;2023-08-31T13:09:57;3.40;;;1.63;;
8913;SDS011;4492;48.736;9.092;2023-08-31T13:12:25;3.97;;;1.80;;
8913;SDS011;4492;48.736;9.092;2023-08-31T13:14:50;6.67;;;2.03;;
8913;SDS011;4492;48.736;9.092;2023-08-31T13:17:16;5.13;;;2.13;;
8913;SDS011;4492;48.736;9.092;2023-08-31T13:19:41;2.77;;;1.90;;
8913;SDS011;4492;48.736;9.092;2023-08-31T13:22:07;2.87;;;2.13;;
8913;SDS011;4492;48.736;9.092;2023-08-31T13:24:32;5.40;;;1.80;;
8913;SDS011;4492;48.736;9.092;2023-08-31T13:26:58;4.87;;;1.90;;
8913;SDS011;4492;48.736;9.092;2023-08-31T13:29:23;3.50;;;2.00;;
8913;SDS011;4492;48.736;9.092;2023-08-31T13:31:49;2.43;;;1.60;;
8913;SDS011;4492;48.736;9.092;2023-08-31T13:34:14;4.17;;;2.20;;
8913;SDS011;4492;48.736;9.092;2023-08-31T13:36:40;2.83;;;1.80;;
8913;SDS011;4492;48.736;9.092;2023-08-31T13:39:06;1.60;;;1.33;;
8913;SDS011;4492;48.736;9.092;2023-08-31T13:41:32;2.30;;;1.17;;
8913;SDS011;4492;48.736;9.092;2023-08-31T13:43:58;2.50;;;2.03;;
8913;SDS011;4492;48.736;9.092;2023-08-31T13:46:23;3.53;;;2.00;;
8913;SDS011;4492;48.736;9.092;2023-08-31T13:48:49;1.40;;;1.30;;
8913;SDS011;4492;48.736;9.092;2023-08-31T13:51:14;2.43;;;1.77;;
8913;SDS011;4492;48.736;9.092;2023-08-31T13:53:40;3.37;;;1.87;;
8913;SDS011;4492;48.736;9.092;2023-08-31T13:56:05;2.83;;;1.73;;
8913;SDS011;4492;48.736;9.092;2023-08-31T13:58:31;3.37;;;2.03;;
8913;SDS011;4492;48.736;9.092;2023-08-31T14:00:56;3.20;;;2.50;;
8913;SDS011;4492;48.736;9.092;2023-08-31T14:03:22;2.70;;;2.03;;
8913;SDS011;4492;48.736;9.092;2023-08-31T14:05:48;6.70;;;3.00;;
8913;SDS011;4492;48.736;9.092;2023-08-31T14:08:14;7.93;;;4.10;;
8913;SDS011;4492;48.736;9.092;2023-08-31T14:10:40;6.17;;;3.80;;
8913;SDS011;4492;48.736;9.092;2023-08-31T14:13:05;4.87;;;2.97;;
8913;SDS011;4492;48.736;9.092;2023-08-31T14:15:31;3.30;;;2.23;;
8913;SDS011;4492;48.736;9.092;2023-08-31T14:17:57;6.23;;;3.60;;
8913;SDS011;4492;48.736;9.092;2023-08-31T14:20:23;5.07;;;3.77;;
8913;SDS011;4492;48.736;9.092;2023-08-31T14:22:48;4.60;;;3.10;;
8913;SDS011;4492;48.736;9.092;2023-08-31T14:25:15;5.33;;;3.33;;
8913;SDS011;4492;48.736;9.092;2023-08-31T14:27:41;4.10;;;2.50;;
8913;SDS011;4492;48.736;9.092;2023-08-31T14:30:06;4.70;;;2.10;;
8913;SDS011;4492;48.736;9.092;2023-08-31T14:32:32;4.47;;;2.70;;
8913;SDS011;4492;48.736;9.092;2023-08-31T14:34:58;3.73;;;1.80;;
8913;SDS011;4492;48.736;9.092;2023-08-31T14:37:23;3.50;;;1.90;;
8913;SDS011;4492;48.736;9.092;2023-08-31T14:39:49;3.30;;;1.90;;
8913;SDS011;4492;48.736;9.092;2023-08-31T14:42:15;5.30;;;1.93;;
8913;SDS011;4492;48.736;9.092;2023-08-31T14:44:42;5.03;;;2.20;;
8913;SDS011;4492;48.736;9.092;2023-08-31T14:47:09;4.53;;;1.60;;
8913;SDS011;4492;48.736;9.092;2023-08-31T14:49:34;3.13;;;1.63;;
8913;SDS011;4492;48.736;9.092;2023-08-31T14:52:03;3.67;;;1.90;;
8913;SDS011;4492;48.736;9.092;2023-08-31T14:54:31;2.27;;;1.70;;
8913;SDS011;4492;48.736;9.092;2023-08-31T14:56:57;3.27;;;1.73;;
8913;SDS011;4492;48.736;9.092;2023-08-31T14:59:23;3.30;;;1.77;;
8913;SDS011;4492;48.736;9.092;2023-08-31T15:01:49;3.80;;;1.77;;
8913;SDS011;4492;48.736;9.092;2023-08-31T15:04:15;3.53;;;2.10;;
8913;SDS011;4492;48.736;9.092;2023-08-31T15:06:40;4.10;;;1.90;;
8913;SDS011;4492;48.736;9.092;2023-08-31T15:09:06;2.83;;;1.73;;
8913;SDS011;4492;48.736;9.092;2023-08-31T15:11:32;5.77;;;2.10;;
8913;SDS011;4492;48.736;9.092;2023-08-31T15:13:57;2.37;;;1.73;;
8913;SDS011;4492;48.736;9.092;2023-08-31T15:16:23;4.50;;;1.90;;
8913;SDS011;4492;48.736;9.092;2023-08-31T15:18:49;3.27;;;1.60;;
8913;SDS011;4492;48.736;9.092;2023-08-31T15:21:15;2.33;;;1.70;;
8913;SDS011;4492;48.736;9.092;2023-08-31T15:23:42;4.17;;;2.07;;